createdAt,value
2018-12-19T00:00:36.653Z,1006.74
2018-12-19T00:01:36.644Z,1006.74
2018-12-19T00:02:36.653Z,1006.70
2018-12-19T00:03:36.679Z,1006.66
2018-12-19T00:04:36.674Z,1006.64
2018-12-19T00:05:36.686Z,1006.56
2018-12-19T00:06:36.703Z,1006.58
2018-12-19T00:07:36.710Z,1006.57
2018-12-19T00:08:37.019Z,1006.53
2018-12-19T00:10:36.847Z,1006.50
2018-12-19T00:11:36.751Z,1006.50
2018-12-19T00:12:36.760Z,1006.48
2018-12-19T00:13:36.769Z,1006.38
2018-12-19T00:14:36.788Z,1006.39
2018-12-19T00:15:36.792Z,1006.34
2018-12-19T00:16:36.804Z,1006.37
2018-12-19T00:17:36.813Z,1006.30
2018-12-19T00:18:36.831Z,1006.30
2018-12-19T00:19:36.840Z,1006.27
2018-12-19T00:20:36.842Z,1006.25
2018-12-19T00:21:36.857Z,1006.22
2018-12-19T00:22:36.876Z,1006.24
2018-12-19T00:23:36.875Z,1006.14
2018-12-19T00:24:36.885Z,1006.14
2018-12-19T00:25:36.895Z,1006.11
2018-12-19T00:26:36.908Z,1006.10
2018-12-19T00:27:36.917Z,1006.11
2018-12-19T00:28:36.926Z,1006.14
2018-12-19T00:29:36.935Z,1006.08
2018-12-19T00:30:36.957Z,1006.07
2018-12-19T00:31:36.957Z,1006.10
2018-12-19T00:32:36.973Z,1006.03
2018-12-19T00:33:36.985Z,1006.02
2018-12-19T00:34:36.989Z,1005.98
2018-12-19T00:35:37.001Z,1006.04
2018-12-19T00:36:37.023Z,1006.00
2018-12-19T00:37:37.061Z,1005.99
2018-12-19T00:38:37.031Z,1006.04
2018-12-19T00:39:37.053Z,1005.93
2018-12-19T00:40:37.215Z,1005.98
2018-12-19T00:41:37.059Z,1005.93
2018-12-19T00:42:37.074Z,1005.91
2018-12-19T00:43:37.081Z,1005.89
2018-12-19T00:44:37.137Z,1005.85
2018-12-19T00:45:37.208Z,1005.82
2018-12-19T00:46:37.114Z,1005.81
2018-12-19T00:47:37.122Z,1005.86
2018-12-19T00:48:37.137Z,1005.88
2018-12-19T00:49:37.145Z,1005.93
2018-12-19T00:50:37.155Z,1005.93
2018-12-19T00:51:37.166Z,1005.90
2018-12-19T00:52:37.179Z,1005.92
2018-12-19T00:53:37.187Z,1005.98
2018-12-19T00:54:37.196Z,1005.95
2018-12-19T00:55:37.214Z,1005.95
2018-12-19T00:56:37.221Z,1005.93
2018-12-19T00:57:37.251Z,1005.99
2018-12-19T00:58:37.253Z,1006.02
2018-12-19T00:59:37.264Z,1006.01
2018-12-19T01:00:37.259Z,1006.06
2018-12-19T01:01:37.270Z,1006.06
2018-12-19T01:02:37.282Z,1006.07
2018-12-19T01:03:37.300Z,1006.07
2018-12-19T01:04:37.319Z,1006.08
2018-12-19T01:05:37.312Z,1006.08
2018-12-19T01:06:37.332Z,1006.07
2018-12-19T01:07:37.336Z,1006.09
2018-12-19T01:08:37.355Z,1006.09
2018-12-19T01:09:37.534Z,1006.07
2018-12-19T01:10:37.396Z,1006.03
2018-12-19T01:11:37.402Z,1006.04
2018-12-19T01:12:37.384Z,1006.05
2018-12-19T01:13:37.400Z,1006.03
2018-12-19T01:14:37.547Z,1005.96
2018-12-19T01:15:37.426Z,1005.96
2018-12-19T01:16:37.435Z,1005.90
2018-12-19T01:17:37.448Z,1005.92
2018-12-19T01:18:37.462Z,1005.89
2018-12-19T01:19:37.465Z,1005.93
2018-12-19T01:20:37.469Z,1005.89
2018-12-19T01:21:37.488Z,1005.92
2018-12-19T01:22:37.496Z,1005.88
2018-12-19T01:23:37.500Z,1005.83
2018-12-19T01:24:37.517Z,1005.85
2018-12-19T01:25:37.556Z,1005.85
2018-12-19T01:26:37.547Z,1005.83
2018-12-19T01:27:37.579Z,1005.87
2018-12-19T01:28:37.678Z,1005.84
2018-12-19T01:29:37.566Z,1005.87
2018-12-19T01:30:37.575Z,1005.84
2018-12-19T01:31:37.588Z,1005.73
2018-12-19T01:32:37.601Z,1005.72
2018-12-19T01:33:37.605Z,1005.76
2018-12-19T01:34:37.615Z,1005.76
2018-12-19T01:35:37.630Z,1005.70
2018-12-19T01:36:37.650Z,1005.70
2018-12-19T01:37:37.646Z,1005.68
2018-12-19T01:38:37.663Z,1005.66
2018-12-19T01:39:37.703Z,1005.67
2018-12-19T01:40:37.716Z,1005.67
2018-12-19T01:41:37.704Z,1005.62
2018-12-19T01:42:37.805Z,1005.56
2018-12-19T01:43:37.715Z,1005.58
2018-12-19T01:44:37.759Z,1005.57
2018-12-19T01:45:37.836Z,1005.57
2018-12-19T01:46:37.745Z,1005.55
2018-12-19T01:47:37.756Z,1005.53
2018-12-19T01:48:37.768Z,1005.54
2018-12-19T01:49:37.807Z,1005.53
2018-12-19T01:50:37.787Z,1005.55
2018-12-19T01:51:37.797Z,1005.52
2018-12-19T01:52:37.808Z,1005.55
2018-12-19T01:53:37.817Z,1005.52
2018-12-19T01:54:37.840Z,1005.59
2018-12-19T01:55:37.837Z,1005.53
2018-12-19T01:56:37.846Z,1005.50
2018-12-19T01:57:37.861Z,1005.45
2018-12-19T01:58:37.886Z,1005.44
2018-12-19T01:59:37.881Z,1005.39
2018-12-19T02:00:37.930Z,1005.37
2018-12-19T02:01:37.906Z,1005.38
2018-12-19T02:02:38.117Z,1005.38
2018-12-19T02:03:37.926Z,1005.43
2018-12-19T02:04:37.941Z,1005.49
2018-12-19T02:05:37.942Z,1005.44
2018-12-19T02:06:37.957Z,1005.48
2018-12-19T02:07:37.963Z,1005.48
2018-12-19T02:08:37.973Z,1005.44
2018-12-19T02:09:37.993Z,1005.40
2018-12-19T02:10:38.028Z,1005.39
2018-12-19T02:11:38.023Z,1005.42
2018-12-19T02:12:38.023Z,1005.38
2018-12-19T02:13:38.052Z,1005.41
2018-12-19T02:14:38.037Z,1005.49
2018-12-19T02:15:38.048Z,1005.45
2018-12-19T02:16:38.062Z,1005.40
2018-12-19T02:17:38.097Z,1005.39
2018-12-19T02:18:38.086Z,1005.35
2018-12-19T02:19:38.090Z,1005.36
2018-12-19T02:20:38.122Z,1005.35
2018-12-19T02:21:38.115Z,1005.38
2018-12-19T02:22:38.125Z,1005.36
2018-12-19T02:23:38.145Z,1005.34
2018-12-19T02:24:38.146Z,1005.40
2018-12-19T02:25:38.162Z,1005.40
2018-12-19T02:26:38.164Z,1005.45
2018-12-19T02:27:38.196Z,1005.42
2018-12-19T02:28:38.188Z,1005.45
2018-12-19T02:29:38.199Z,1005.47
2018-12-19T02:30:38.216Z,1005.41
2018-12-19T02:31:38.220Z,1005.38
2018-12-19T02:32:38.227Z,1005.43
2018-12-19T02:33:38.243Z,1005.56
2018-12-19T02:34:38.266Z,1005.62
2018-12-19T02:35:38.282Z,1005.58
2018-12-19T02:36:38.372Z,1005.64
2018-12-19T02:37:38.303Z,1005.61
2018-12-19T02:38:38.290Z,1005.64
2018-12-19T02:39:38.302Z,1005.68
2018-12-19T02:40:38.312Z,1005.67
2018-12-19T02:41:38.339Z,1005.72
2018-12-19T02:42:38.333Z,1005.73
2018-12-19T02:43:38.440Z,1005.74
2018-12-19T02:44:38.404Z,1005.77
2018-12-19T02:45:38.386Z,1005.73
2018-12-19T02:46:38.403Z,1005.78
2018-12-19T02:47:38.391Z,1005.77
2018-12-19T02:48:38.410Z,1005.71
2018-12-19T02:49:38.411Z,1005.78
2018-12-19T02:50:38.424Z,1005.73
2018-12-19T02:51:38.437Z,1005.71
2018-12-19T02:52:38.486Z,1005.69
2018-12-19T02:53:38.470Z,1005.71
2018-12-19T02:54:38.490Z,1005.69
2018-12-19T02:55:38.504Z,1005.63
2018-12-19T02:56:38.490Z,1005.63
2018-12-19T02:57:38.494Z,1005.62
2018-12-19T02:58:38.505Z,1005.64
2018-12-19T02:59:38.511Z,1005.62
2018-12-19T03:00:38.517Z,1005.64
2018-12-19T03:01:38.530Z,1005.62
2018-12-19T03:02:38.544Z,1005.64
2018-12-19T03:03:38.556Z,1005.64
2018-12-19T03:04:38.575Z,1005.63
2018-12-19T03:05:38.575Z,1005.57
2018-12-19T03:06:38.587Z,1005.58
2018-12-19T03:07:38.594Z,1005.58
2018-12-19T03:08:38.607Z,1005.56
2018-12-19T03:09:42.894Z,1005.58
2018-12-19T03:10:38.640Z,1005.57
2018-12-19T03:11:38.646Z,1005.59
2018-12-19T03:13:38.674Z,1005.63
2018-12-19T03:14:38.671Z,1005.69
2018-12-19T03:15:38.785Z,1005.71
2018-12-19T03:16:38.691Z,1005.67
2018-12-19T03:17:38.705Z,1005.70
2018-12-19T03:18:38.715Z,1005.69
2018-12-19T03:19:38.730Z,1005.70
2018-12-19T03:20:38.737Z,1005.72
2018-12-19T03:21:38.744Z,1005.69
2018-12-19T03:22:39.149Z,1005.69
2018-12-19T03:23:38.849Z,1005.63
2018-12-19T03:24:38.784Z,1005.65
2018-12-19T03:25:38.795Z,1005.68
2018-12-19T03:26:38.818Z,1005.65
2018-12-19T03:27:38.813Z,1005.61
2018-12-19T03:28:38.827Z,1005.55
2018-12-19T03:29:38.834Z,1005.53
2018-12-19T03:30:38.847Z,1005.49
2018-12-19T03:31:39.049Z,1005.54
2018-12-19T03:32:38.867Z,1005.50
2018-12-19T03:33:38.901Z,1005.51
2018-12-19T03:34:38.896Z,1005.51
2018-12-19T03:35:38.899Z,1005.47
2018-12-19T03:36:38.913Z,1005.49
2018-12-19T03:37:38.922Z,1005.54
2018-12-19T03:38:38.932Z,1005.59
2018-12-19T03:39:38.949Z,1005.62
2018-12-19T03:40:38.955Z,1005.65
2018-12-19T03:41:38.969Z,1005.67
2018-12-19T03:42:38.977Z,1005.69
2018-12-19T03:43:38.994Z,1005.68
2018-12-19T03:44:39.000Z,1005.71
2018-12-19T03:45:39.008Z,1005.62
2018-12-19T03:46:39.023Z,1005.67
2018-12-19T03:47:39.034Z,1005.66
2018-12-19T03:48:39.090Z,1005.63
2018-12-19T03:49:39.051Z,1005.59
2018-12-19T03:50:39.063Z,1005.52
2018-12-19T03:51:39.080Z,1005.53
2018-12-19T03:52:39.095Z,1005.45
2018-12-19T03:53:39.105Z,1005.50
2018-12-19T03:54:39.115Z,1005.45
2018-12-19T03:55:39.119Z,1005.47
2018-12-19T03:56:39.161Z,1005.40
2018-12-19T03:57:39.140Z,1005.41
2018-12-19T03:58:39.164Z,1005.38
2018-12-19T03:59:39.160Z,1005.38
2018-12-19T04:00:39.175Z,1005.36
2018-12-19T04:01:39.199Z,1005.36
2018-12-19T04:02:39.205Z,1005.37
2018-12-19T04:03:39.206Z,1005.35
2018-12-19T04:04:39.217Z,1005.34
2018-12-19T04:05:39.537Z,1005.33
2018-12-19T04:06:39.264Z,1005.26
2018-12-19T04:07:39.254Z,1005.27
2018-12-19T04:08:39.301Z,1005.23
2018-12-19T04:09:39.271Z,1005.25
2018-12-19T04:10:39.289Z,1005.21
2018-12-19T04:11:39.296Z,1005.13
2018-12-19T04:12:39.309Z,1005.12
2018-12-19T04:13:39.320Z,1005.09
2018-12-19T04:14:39.349Z,1005.11
2018-12-19T04:15:39.341Z,1005.04
2018-12-19T04:16:39.358Z,1005.08
2018-12-19T04:17:39.362Z,1005.11
2018-12-19T04:18:39.392Z,1005.17
2018-12-19T04:19:39.387Z,1005.11
2018-12-19T04:20:39.410Z,1005.16
2018-12-19T04:21:39.407Z,1005.10
2018-12-19T04:22:39.423Z,1005.04
2018-12-19T04:23:39.430Z,1005.02
2018-12-19T04:24:39.513Z,1005.01
2018-12-19T04:26:39.509Z,1004.90
2018-12-19T04:27:39.476Z,1004.97
2018-12-19T04:28:39.486Z,1004.94
2018-12-19T04:29:39.509Z,1004.90
2018-12-19T04:30:39.510Z,1004.86
2018-12-19T04:31:39.520Z,1004.90
2018-12-19T04:32:39.530Z,1004.92
2018-12-19T04:33:39.555Z,1004.87
2018-12-19T04:34:39.551Z,1004.88
2018-12-19T04:35:39.560Z,1004.88
2018-12-19T04:36:39.576Z,1004.84
2018-12-19T04:37:39.599Z,1004.80
2018-12-19T04:38:39.602Z,1004.78
2018-12-19T04:39:39.610Z,1004.80
2018-12-19T04:40:39.621Z,1004.80
2018-12-19T04:41:39.630Z,1004.79
2018-12-19T04:42:39.644Z,1004.75
2018-12-19T04:43:39.654Z,1004.72
2018-12-19T04:44:39.663Z,1004.70
2018-12-19T04:45:39.678Z,1004.64
2018-12-19T04:46:39.689Z,1004.64
2018-12-19T04:47:39.696Z,1004.65
2018-12-19T04:48:39.716Z,1004.58
2018-12-19T04:49:39.733Z,1004.60
2018-12-19T04:50:39.732Z,1004.62
2018-12-19T04:51:39.741Z,1004.63
2018-12-19T04:52:39.755Z,1004.63
2018-12-19T04:53:39.765Z,1004.61
2018-12-19T04:54:39.779Z,1004.76
2018-12-19T04:55:39.793Z,1004.73
2018-12-19T04:56:39.797Z,1004.76
2018-12-19T04:57:39.809Z,1004.70
2018-12-19T04:58:39.823Z,1004.72
2018-12-19T04:59:39.832Z,1004.72
2018-12-19T05:00:39.846Z,1004.70
2018-12-19T05:01:39.855Z,1004.80
2018-12-19T05:02:39.866Z,1004.78
2018-12-19T05:03:39.882Z,1004.80
2018-12-19T05:04:39.888Z,1004.74
2018-12-19T05:05:39.930Z,1004.72
2018-12-19T05:06:39.907Z,1004.73
2018-12-19T05:07:39.918Z,1004.72
2018-12-19T05:08:39.933Z,1004.72
2018-12-19T05:09:39.940Z,1004.75
2018-12-19T05:10:39.952Z,1004.80
2018-12-19T05:11:39.964Z,1004.86
2018-12-19T05:12:39.996Z,1004.88
2018-12-19T05:13:39.986Z,1004.89
2018-12-19T05:14:39.998Z,1004.88
2018-12-19T05:15:40.006Z,1004.92
2018-12-19T05:16:40.083Z,1004.91
2018-12-19T05:17:40.159Z,1004.92
2018-12-19T05:18:40.044Z,1004.92
2018-12-19T05:19:40.069Z,1004.91
2018-12-19T05:20:40.061Z,1004.92
2018-12-19T05:21:40.526Z,1004.94
2018-12-19T05:22:40.083Z,1004.97
2018-12-19T05:23:40.101Z,1004.95
2018-12-19T05:24:40.108Z,1004.96
2018-12-19T05:25:40.116Z,1005.01
2018-12-19T05:26:40.146Z,1004.99
2018-12-19T05:27:40.152Z,1005.07
2018-12-19T05:28:40.231Z,1005.02
2018-12-19T05:29:40.161Z,1005.04
2018-12-19T05:30:40.181Z,1005.07
2018-12-19T05:31:40.184Z,1005.12
2018-12-19T05:32:40.196Z,1005.09
2018-12-19T05:33:40.222Z,1005.11
2018-12-19T05:34:40.234Z,1005.11
2018-12-19T05:35:40.244Z,1005.11
2018-12-19T05:36:40.251Z,1005.09
2018-12-19T05:37:40.255Z,1005.15
2018-12-19T05:38:40.261Z,1005.09
2018-12-19T05:39:40.272Z,1005.13
2018-12-19T05:40:40.282Z,1005.10
2018-12-19T05:41:40.314Z,1005.08
2018-12-19T05:42:40.313Z,1005.12
2018-12-19T05:43:40.313Z,1005.11
2018-12-19T05:44:40.340Z,1005.10
2018-12-19T05:45:40.341Z,1005.09
2018-12-19T05:46:40.358Z,1005.08
2018-12-19T05:47:40.368Z,1005.14
2018-12-19T05:48:40.383Z,1005.13
2018-12-19T05:49:40.395Z,1005.08
2018-12-19T05:50:40.399Z,1005.13
2018-12-19T05:51:40.405Z,1005.18
2018-12-19T05:52:40.432Z,1005.20
2018-12-19T05:53:40.433Z,1005.20
2018-12-19T05:54:40.448Z,1005.21
2018-12-19T05:55:40.451Z,1005.25
2018-12-19T05:56:40.471Z,1005.29
2018-12-19T05:57:40.473Z,1005.26
2018-12-19T05:58:40.487Z,1005.26
2018-12-19T05:59:40.502Z,1005.28
2018-12-19T06:00:40.602Z,1005.25
2018-12-19T06:01:40.519Z,1005.25
2018-12-19T06:02:40.591Z,1005.26
2018-12-19T06:03:40.570Z,1005.31
2018-12-19T06:04:40.555Z,1005.28
2018-12-19T06:05:40.560Z,1005.27
2018-12-19T06:06:40.602Z,1005.26
2018-12-19T06:07:40.588Z,1005.25
2018-12-19T06:08:40.620Z,1005.23
2018-12-19T06:09:40.609Z,1005.29
2018-12-19T06:10:40.621Z,1005.33
2018-12-19T06:11:40.659Z,1005.32
2018-12-19T06:12:40.640Z,1005.25
2018-12-19T06:13:40.662Z,1005.30
2018-12-19T06:14:40.684Z,1005.27
2018-12-19T06:15:40.671Z,1005.33
2018-12-19T06:16:40.707Z,1005.30
2018-12-19T06:17:40.702Z,1005.25
2018-12-19T06:18:40.704Z,1005.27
2018-12-19T06:19:40.721Z,1005.26
2018-12-19T06:20:40.726Z,1005.24
2018-12-19T06:21:40.771Z,1005.23
2018-12-19T06:22:40.767Z,1005.27
2018-12-19T06:23:40.773Z,1005.35
2018-12-19T06:24:40.775Z,1005.35
2018-12-19T06:25:40.784Z,1005.33
2018-12-19T06:26:40.815Z,1005.30
2018-12-19T06:27:40.808Z,1005.38
2018-12-19T06:28:40.886Z,1005.37
2018-12-19T06:29:40.828Z,1005.32
2018-12-19T06:30:40.855Z,1005.39
2018-12-19T06:31:40.849Z,1005.36
2018-12-19T06:32:40.882Z,1005.32
2018-12-19T06:33:40.874Z,1005.32
2018-12-19T06:34:40.884Z,1005.31
2018-12-19T06:35:40.897Z,1005.29
2018-12-19T06:36:40.931Z,1005.26
2018-12-19T06:37:40.931Z,1005.33
2018-12-19T06:38:40.931Z,1005.37
2018-12-19T06:39:40.938Z,1005.38
2018-12-19T06:40:40.994Z,1005.30
2018-12-19T06:41:40.968Z,1005.34
2018-12-19T06:42:40.980Z,1005.29
2018-12-19T06:43:41.094Z,1005.36
2018-12-19T06:44:41.007Z,1005.41
2018-12-19T06:45:41.005Z,1005.47
2018-12-19T06:46:41.038Z,1005.48
2018-12-19T06:47:41.033Z,1005.47
2018-12-19T06:48:41.041Z,1005.44
2018-12-19T06:49:41.058Z,1005.37
2018-12-19T06:50:41.063Z,1005.45
2018-12-19T06:51:41.074Z,1005.42
2018-12-19T06:52:41.106Z,1005.45
2018-12-19T06:53:41.115Z,1005.45
2018-12-19T06:54:41.115Z,1005.51
2018-12-19T06:55:41.124Z,1005.48
2018-12-19T06:56:41.144Z,1005.52
2018-12-19T06:57:41.143Z,1005.54
2018-12-19T06:58:41.155Z,1005.50
2018-12-19T06:59:41.175Z,1005.57
2018-12-19T07:00:41.177Z,1005.49
2018-12-19T07:01:41.186Z,1005.55
2018-12-19T07:02:41.199Z,1005.55
2018-12-19T07:03:41.215Z,1005.54
2018-12-19T07:04:41.230Z,1005.59
2018-12-19T07:05:41.232Z,1005.55
2018-12-19T07:06:41.310Z,1005.55
2018-12-19T07:07:41.254Z,1005.53
2018-12-19T07:08:41.553Z,1005.55
2018-12-19T07:09:41.272Z,1005.57
2018-12-19T07:10:41.306Z,1005.58
2018-12-19T07:11:41.316Z,1005.61
2018-12-19T07:12:41.332Z,1005.63
2018-12-19T07:13:41.329Z,1005.57
2018-12-19T07:14:41.343Z,1005.61
2018-12-19T07:15:41.344Z,1005.62
2018-12-19T07:16:43.594Z,1005.55
2018-12-19T07:17:41.365Z,1005.60
2018-12-19T07:18:41.377Z,1005.63
2018-12-19T07:19:41.389Z,1005.70
2018-12-19T07:20:41.400Z,1005.67
2018-12-19T07:21:41.500Z,1005.65
2018-12-19T07:22:41.423Z,1005.72
2018-12-19T07:23:41.435Z,1005.70
2018-12-19T07:24:41.444Z,1005.73
2018-12-19T07:25:41.457Z,1005.72
2018-12-19T07:26:41.465Z,1005.76
2018-12-19T07:27:41.496Z,1005.72
2018-12-19T07:28:41.495Z,1005.78
2018-12-19T07:29:41.514Z,1005.79
2018-12-19T07:30:41.514Z,1005.79
2018-12-19T07:31:41.638Z,1005.81
2018-12-19T07:32:41.546Z,1005.80
2018-12-19T07:33:43.039Z,1005.79
2018-12-19T07:34:44.387Z,1005.78
2018-12-19T07:35:41.565Z,1005.80
2018-12-19T07:36:41.579Z,1005.79
2018-12-19T07:37:41.588Z,1005.85
2018-12-19T07:38:41.603Z,1005.85
2018-12-19T07:39:41.697Z,1005.85
2018-12-19T07:40:45.711Z,1005.89
2018-12-19T07:41:41.679Z,1005.90
2018-12-19T07:42:41.645Z,1005.92
2018-12-19T07:43:41.653Z,1005.94
2018-12-19T07:44:41.680Z,1005.98
2018-12-19T07:45:41.778Z,1005.91
2018-12-19T07:46:41.703Z,1005.93
2018-12-19T07:47:41.710Z,1005.90
2018-12-19T07:48:41.734Z,1005.92
2018-12-19T07:49:41.742Z,1005.97
2018-12-19T07:50:41.743Z,1005.97
2018-12-19T07:51:41.757Z,1005.94
2018-12-19T07:52:41.766Z,1005.92
2018-12-19T07:53:41.781Z,1005.91
2018-12-19T07:54:41.782Z,1005.96
2018-12-19T07:55:41.803Z,1005.93
2018-12-19T07:56:41.812Z,1005.89
2018-12-19T07:57:41.818Z,1005.90
2018-12-19T07:58:41.826Z,1005.93
2018-12-19T07:59:41.839Z,1005.98
2018-12-19T08:00:41.877Z,1005.94
2018-12-19T08:01:41.890Z,1005.94
2018-12-19T08:02:41.909Z,1005.95
2018-12-19T08:03:41.889Z,1006.02
2018-12-19T08:04:41.901Z,1005.96
2018-12-19T08:05:41.909Z,1005.97
2018-12-19T08:07:41.927Z,1006.03
2018-12-19T08:08:41.948Z,1006.01
2018-12-19T08:09:41.948Z,1006.09
2018-12-19T08:10:41.989Z,1006.04
2018-12-19T08:11:41.973Z,1006.07
2018-12-19T08:12:41.992Z,1006.11
2018-12-19T08:14:42.704Z,1006.12
2018-12-19T08:15:42.012Z,1006.18
2018-12-19T08:16:42.095Z,1006.20
2018-12-19T08:17:42.035Z,1006.18
2018-12-19T08:18:42.052Z,1006.22
2018-12-19T08:19:42.056Z,1006.20
2018-12-19T08:20:42.073Z,1006.24
2018-12-19T08:21:42.084Z,1006.21
2018-12-19T08:22:42.097Z,1006.25
2018-12-19T08:23:42.135Z,1006.19
2018-12-19T08:24:42.135Z,1006.25
2018-12-19T08:25:42.988Z,1006.21
2018-12-19T08:26:42.153Z,1006.25
2018-12-19T08:27:42.169Z,1006.22
2018-12-19T08:28:42.161Z,1006.26
2018-12-19T08:29:42.181Z,1006.30
2018-12-19T08:30:42.198Z,1006.22
2018-12-19T08:31:42.212Z,1006.30
2018-12-19T08:32:42.205Z,1006.29
2018-12-19T08:33:42.217Z,1006.29
2018-12-19T08:34:42.235Z,1006.33
2018-12-19T08:35:42.243Z,1006.30
2018-12-19T08:36:42.251Z,1006.35
2018-12-19T08:37:42.263Z,1006.36
2018-12-19T08:38:42.288Z,1006.36
2018-12-19T08:39:42.292Z,1006.38
2018-12-19T08:40:42.293Z,1006.39
2018-12-19T08:41:42.325Z,1006.39
2018-12-19T08:42:42.351Z,1006.44
2018-12-19T08:43:42.336Z,1006.44
2018-12-19T08:44:42.336Z,1006.41
2018-12-19T08:45:42.345Z,1006.48
2018-12-19T08:46:42.375Z,1006.49
2018-12-19T08:47:42.387Z,1006.49
2018-12-19T08:48:42.382Z,1006.50
2018-12-19T08:49:42.392Z,1006.48
2018-12-19T08:50:42.404Z,1006.51
2018-12-19T08:51:42.428Z,1006.54
2018-12-19T08:52:42.427Z,1006.56
2018-12-19T08:53:42.453Z,1006.51
2018-12-19T08:54:42.454Z,1006.58
2018-12-19T08:55:42.471Z,1006.55
2018-12-19T08:56:42.543Z,1006.60
2018-12-19T08:57:42.702Z,1006.58
2018-12-19T08:58:42.494Z,1006.60
2018-12-19T08:59:42.507Z,1006.58
2018-12-19T09:00:42.515Z,1006.65
2018-12-19T09:01:42.531Z,1006.63
2018-12-19T09:02:42.549Z,1006.64
2018-12-19T09:03:42.561Z,1006.64
2018-12-19T09:04:42.567Z,1006.60
2018-12-19T09:05:42.582Z,1006.60
2018-12-19T09:06:42.587Z,1006.63
2018-12-19T09:07:42.601Z,1006.67
2018-12-19T09:08:42.656Z,1006.64
2018-12-19T09:09:42.623Z,1006.64
2018-12-19T09:10:42.629Z,1006.65
2018-12-19T09:11:42.646Z,1006.64
2018-12-19T09:12:42.672Z,1006.65
2018-12-19T09:13:42.674Z,1006.64
2018-12-19T09:14:42.675Z,1006.63
2018-12-19T09:15:42.706Z,1006.66
2018-12-19T09:16:42.699Z,1006.67
2018-12-19T09:17:42.957Z,1006.63
2018-12-19T09:18:42.767Z,1006.69
2018-12-19T09:19:42.732Z,1006.71
2018-12-19T09:20:42.748Z,1006.72
2018-12-19T09:21:42.760Z,1006.68
2018-12-19T09:22:42.768Z,1006.73
2018-12-19T09:23:42.787Z,1006.71
2018-12-19T09:24:42.787Z,1006.75
2018-12-19T09:25:42.992Z,1006.70
2018-12-19T09:26:42.816Z,1006.79
2018-12-19T09:27:42.827Z,1006.77
2018-12-19T09:28:42.908Z,1006.76
2018-12-19T09:29:43.629Z,1006.80
2018-12-19T09:30:43.904Z,1006.81
2018-12-19T09:31:43.918Z,1006.77
2018-12-19T09:32:42.971Z,1006.83
2018-12-19T09:33:42.905Z,1006.86
2018-12-19T09:34:42.905Z,1006.85
2018-12-19T09:35:42.913Z,1006.82
2018-12-19T09:36:42.928Z,1006.86
2018-12-19T09:37:42.951Z,1006.87
2018-12-19T09:38:42.949Z,1006.91
2018-12-19T09:39:42.975Z,1006.93
2018-12-19T09:40:42.970Z,1006.95
2018-12-19T09:41:42.998Z,1006.92
2018-12-19T09:42:43.030Z,1006.96
2018-12-19T09:43:43.008Z,1006.98
2018-12-19T09:44:43.018Z,1006.97
2018-12-19T09:45:43.029Z,1006.94
2018-12-19T09:46:43.044Z,1006.95
2018-12-19T09:47:43.553Z,1006.97
2018-12-19T09:48:43.126Z,1006.90
2018-12-19T09:49:43.183Z,1006.96
2018-12-19T09:50:43.086Z,1006.97
2018-12-19T09:51:43.105Z,1006.97
2018-12-19T09:52:43.107Z,1006.98
2018-12-19T09:53:43.116Z,1006.99
2018-12-19T09:54:43.144Z,1007.00
2018-12-19T09:55:43.265Z,1006.98
2018-12-19T09:56:43.155Z,1007.02
2018-12-19T09:57:43.169Z,1006.98
2018-12-19T09:58:43.178Z,1006.95
2018-12-19T09:59:43.294Z,1006.99
2018-12-19T10:00:43.201Z,1006.94
2018-12-19T10:01:43.283Z,1006.95
2018-12-19T10:02:43.300Z,1006.93
2018-12-19T10:03:43.241Z,1006.89
2018-12-19T10:04:43.251Z,1006.85
2018-12-19T10:05:43.266Z,1006.88
2018-12-19T10:06:43.270Z,1006.90
2018-12-19T10:07:43.298Z,1006.85
2018-12-19T10:08:43.298Z,1006.85
2018-12-19T10:09:43.313Z,1006.80
2018-12-19T10:10:43.330Z,1006.82
2018-12-19T10:11:43.404Z,1006.87
2018-12-19T10:12:43.352Z,1006.79
2018-12-19T10:13:43.354Z,1006.87
2018-12-19T10:14:43.371Z,1006.83
2018-12-19T10:15:43.739Z,1006.81
2018-12-19T10:16:43.408Z,1006.79
2018-12-19T10:17:43.405Z,1006.81
2018-12-19T10:18:43.414Z,1006.79
2018-12-19T10:19:43.429Z,1006.74
2018-12-19T10:20:43.437Z,1006.74
2018-12-19T10:21:44.053Z,1006.72
2018-12-19T10:22:43.462Z,1006.73
2018-12-19T10:23:43.486Z,1006.73
2018-12-19T10:24:43.496Z,1006.80
2018-12-19T10:25:44.180Z,1006.77
2018-12-19T10:26:43.527Z,1006.79
2018-12-19T10:27:43.535Z,1006.78
2018-12-19T10:28:43.532Z,1006.76
2018-12-19T10:29:43.549Z,1006.77
2018-12-19T10:30:43.559Z,1006.72
2018-12-19T10:31:43.583Z,1006.80
2018-12-19T10:32:43.586Z,1006.77
2018-12-19T10:33:43.594Z,1006.78
2018-12-19T10:34:43.618Z,1006.81
2018-12-19T10:35:43.620Z,1006.81
2018-12-19T10:36:43.640Z,1006.80
2018-12-19T10:37:43.661Z,1006.81
2018-12-19T10:38:43.657Z,1006.80
2018-12-19T10:39:43.667Z,1006.86
2018-12-19T10:40:43.681Z,1006.85
2018-12-19T10:41:43.692Z,1006.87
2018-12-19T10:42:43.717Z,1006.84
2018-12-19T10:43:43.723Z,1006.82
2018-12-19T10:44:43.729Z,1006.84
2018-12-19T10:45:43.793Z,1006.80
2018-12-19T10:46:43.766Z,1006.75
2018-12-19T10:47:43.780Z,1006.78
2018-12-19T10:48:43.783Z,1006.77
2018-12-19T10:49:43.789Z,1006.75
2018-12-19T10:50:43.844Z,1006.78
2018-12-19T10:51:43.810Z,1006.75
2018-12-19T10:52:43.824Z,1006.70
2018-12-19T10:53:43.942Z,1006.75
2018-12-19T10:54:43.849Z,1006.73
2018-12-19T10:55:43.879Z,1006.74
2018-12-19T10:56:43.876Z,1006.73
2018-12-19T10:57:43.985Z,1006.72
2018-12-19T10:58:43.896Z,1006.74
2018-12-19T10:59:43.909Z,1006.74
2018-12-19T11:00:43.919Z,1006.71
2018-12-19T11:01:43.933Z,1006.69
2018-12-19T11:02:43.947Z,1006.69
2018-12-19T11:03:43.966Z,1006.64
2018-12-19T11:04:43.983Z,1006.69
2018-12-19T11:05:43.994Z,1006.69
2018-12-19T11:06:43.994Z,1006.69
2018-12-19T11:07:44.008Z,1006.74
2018-12-19T11:08:44.020Z,1006.73
2018-12-19T11:09:44.028Z,1006.78
2018-12-19T11:10:45.148Z,1006.77
2018-12-19T11:11:44.053Z,1006.76
2018-12-19T11:12:44.064Z,1006.78
2018-12-19T11:13:44.091Z,1006.78
2018-12-19T11:14:44.093Z,1006.81
2018-12-19T11:15:44.103Z,1006.83
2018-12-19T11:16:44.832Z,1006.82
2018-12-19T11:17:44.141Z,1006.79
2018-12-19T11:18:44.237Z,1006.78
2018-12-19T11:19:44.160Z,1006.78
2018-12-19T11:20:44.166Z,1006.78
2018-12-19T11:21:44.175Z,1006.81
2018-12-19T11:22:44.197Z,1006.87
2018-12-19T11:23:44.203Z,1006.82
2018-12-19T11:24:44.219Z,1006.85
2018-12-19T11:25:44.222Z,1006.77
2018-12-19T11:26:44.265Z,1006.79
2018-12-19T11:27:44.260Z,1006.79
2018-12-19T11:28:44.260Z,1006.78
2018-12-19T11:29:44.275Z,1006.76
2018-12-19T11:30:44.288Z,1006.75
2018-12-19T11:31:44.310Z,1006.71
2018-12-19T11:32:44.311Z,1006.73
2018-12-19T11:33:44.319Z,1006.69
2018-12-19T11:34:44.339Z,1006.73
2018-12-19T11:35:44.348Z,1006.70
2018-12-19T11:36:44.380Z,1006.70
2018-12-19T11:37:44.377Z,1006.61
2018-12-19T11:38:44.384Z,1006.67
2018-12-19T11:39:44.399Z,1006.68
2018-12-19T11:40:44.409Z,1006.66
2018-12-19T11:41:44.419Z,1006.64
2018-12-19T11:42:44.435Z,1006.71
2018-12-19T11:43:44.537Z,1006.65
2018-12-19T11:44:44.459Z,1006.66
2018-12-19T11:45:44.478Z,1006.67
2018-12-19T11:46:44.485Z,1006.64
2018-12-19T11:47:44.497Z,1006.61
2018-12-19T11:48:44.534Z,1006.64
2018-12-19T11:49:44.524Z,1006.60
2018-12-19T11:50:44.537Z,1006.61
2018-12-19T11:51:44.546Z,1006.62
2018-12-19T11:52:44.559Z,1006.64
2018-12-19T11:53:44.585Z,1006.66
2018-12-19T11:54:44.583Z,1006.64
2018-12-19T11:55:44.602Z,1006.54
2018-12-19T11:56:44.611Z,1006.57
2018-12-19T11:57:44.637Z,1006.58
2018-12-19T11:58:44.654Z,1006.56
2018-12-19T11:59:44.641Z,1006.55
2018-12-19T12:00:44.662Z,1006.55
2018-12-19T12:01:44.670Z,1006.58
2018-12-19T12:02:44.691Z,1006.61
2018-12-19T12:03:44.693Z,1006.62
2018-12-19T12:04:44.704Z,1006.63
2018-12-19T12:05:44.727Z,1006.62
2018-12-19T12:06:44.735Z,1006.63
2018-12-19T12:07:44.740Z,1006.62
2018-12-19T12:08:44.759Z,1006.65
2018-12-19T12:09:44.767Z,1006.65
2018-12-19T12:10:44.787Z,1006.67